createdAt,value
2022-12-24T00:00:25.577Z,162.47
2022-12-24T00:02:54.823Z,163.00
2022-12-24T00:05:22.892Z,162.23
2022-12-24T00:07:50.924Z,162.00
2022-12-24T00:10:18.899Z,161.10
2022-12-24T00:12:46.754Z,161.70
2022-12-24T00:15:14.614Z,161.07
2022-12-24T00:17:42.430Z,160.60
2022-12-24T00:20:12.052Z,160.97
2022-12-24T00:22:39.909Z,161.00
2022-12-24T00:25:08.371Z,161.73
2022-12-24T00:27:36.219Z,161.20
2022-12-24T00:30:04.519Z,161.37
2022-12-24T00:32:32.361Z,161.27
2022-12-24T00:35:00.180Z,161.30
2022-12-24T00:37:29.370Z,161.10
2022-12-24T00:39:57.208Z,161.37
2022-12-24T00:42:25.020Z,160.83
2022-12-24T00:44:52.842Z,160.90
2022-12-24T00:47:20.653Z,160.97
2022-12-24T00:49:48.492Z,161.17
2022-12-24T00:52:16.326Z,161.87
2022-12-24T00:54:45.477Z,161.87
2022-12-24T00:57:13.305Z,161.50
2022-12-24T00:59:41.149Z,161.90
2022-12-24T01:02:09.191Z,161.73
2022-12-24T01:04:54.878Z,162.13
2022-12-24T01:07:22.706Z,161.93
2022-12-24T01:09:51.871Z,162.03
2022-12-24T01:12:19.779Z,160.93
2022-12-24T01:14:47.682Z,161.20
2022-12-24T01:17:15.597Z,161.40
2022-12-24T01:19:43.474Z,160.53
2022-12-24T01:22:11.315Z,161.17
2022-12-24T01:24:39.162Z,160.60
2022-12-24T01:27:08.320Z,161.70
2022-12-24T01:29:36.181Z,161.23
2022-12-24T01:32:04.290Z,161.00
2022-12-24T01:34:32.262Z,160.90
2022-12-24T01:37:00.109Z,160.67
2022-12-24T01:39:27.938Z,160.70
2022-12-24T01:42:13.271Z,160.30
2022-12-24T01:44:44.389Z,160.17
2022-12-24T01:47:16.451Z,159.53
2022-12-24T01:49:47.977Z,160.63
2022-12-24T01:52:20.287Z,160.30
2022-12-24T01:54:51.446Z,160.57
2022-12-24T01:57:22.836Z,160.30
2022-12-24T01:59:56.448Z,161.37
2022-12-24T02:02:24.620Z,161.07
2022-12-24T02:04:58.503Z,160.67
2022-12-24T02:07:26.565Z,160.60
2022-12-24T02:09:57.639Z,160.90
2022-12-24T02:12:26.505Z,160.90
2022-12-24T02:14:56.221Z,160.53
2022-12-24T02:17:31.080Z,160.90
2022-12-24T02:20:37.363Z,159.73
2022-12-24T02:23:18.901Z,160.60
2022-12-24T02:26:07.947Z,160.23
2022-12-24T02:28:53.528Z,160.33
2022-12-24T02:31:27.487Z,160.07
2022-12-24T02:34:00.399Z,160.10
2022-12-24T02:36:33.228Z,160.17
2022-12-24T02:39:04.016Z,160.50
2022-12-24T02:41:49.918Z,160.77
2022-12-24T02:44:20.144Z,160.10
2022-12-24T02:46:50.884Z,159.90
2022-12-24T02:49:18.809Z,160.30
2022-12-24T02:51:46.618Z,160.60
2022-12-24T02:54:16.001Z,160.80
2022-12-24T02:57:00.207Z,160.97
2022-12-24T02:59:42.988Z,159.90
2022-12-24T03:02:23.328Z,160.67
2022-12-24T03:05:01.258Z,160.03
2022-12-24T03:07:34.850Z,160.33
2022-12-24T03:10:12.887Z,159.47
2022-12-24T03:12:44.868Z,160.17
2022-12-24T03:15:16.199Z,160.03
2022-12-24T03:17:49.128Z,159.90
2022-12-24T03:20:23.411Z,159.57
2022-12-24T03:22:51.633Z,159.63
2022-12-24T03:25:20.715Z,159.23
2022-12-24T03:27:49.261Z,160.60
2022-12-24T03:30:18.418Z,159.97
2022-12-24T03:32:48.258Z,158.50
2022-12-24T03:35:16.297Z,160.30
2022-12-24T03:37:44.157Z,159.47
2022-12-24T03:40:12.624Z,159.77
2022-12-24T03:42:40.470Z,159.77
2022-12-24T03:45:09.105Z,160.03
2022-12-24T03:47:37.113Z,159.60
2022-12-24T03:50:07.585Z,159.50
2022-12-24T03:52:35.422Z,159.13
2022-12-24T03:55:03.348Z,159.77
2022-12-24T03:57:31.214Z,159.47
2022-12-24T03:59:59.014Z,159.97
2022-12-24T04:02:27.031Z,160.10
2022-12-24T04:04:54.911Z,159.90
2022-12-24T04:07:24.097Z,159.33
2022-12-24T04:09:51.959Z,158.53
2022-12-24T04:12:19.765Z,158.83
2022-12-24T04:14:47.609Z,159.77
2022-12-24T04:17:15.463Z,160.13
2022-12-24T04:19:43.272Z,159.40
2022-12-24T04:22:11.135Z,158.77
2022-12-24T04:24:40.311Z,158.30
2022-12-24T04:27:08.165Z,159.37
2022-12-24T04:29:36.396Z,159.17
2022-12-24T04:32:04.438Z,158.53
2022-12-24T04:34:32.380Z,159.10
2022-12-24T04:37:00.252Z,158.80
2022-12-24T04:39:28.125Z,159.73
2022-12-24T04:41:57.294Z,159.33
2022-12-24T04:44:25.346Z,157.80
2022-12-24T04:46:53.158Z,158.33
2022-12-24T04:49:21.013Z,158.33
2022-12-24T04:51:48.824Z,158.80
2022-12-24T04:54:17.040Z,158.37
2022-12-24T04:56:44.868Z,158.37
2022-12-24T04:59:14.063Z,158.57
2022-12-24T05:01:41.968Z,157.90
2022-12-24T05:04:11.137Z,158.93
2022-12-24T05:06:38.979Z,157.70
2022-12-24T05:09:06.823Z,157.20
2022-12-24T05:11:34.673Z,157.23
2022-12-24T05:14:02.602Z,157.97
2022-12-24T05:16:31.846Z,158.00
2022-12-24T05:18:59.692Z,157.83
2022-12-24T05:21:27.737Z,158.13
2022-12-24T05:24:13.043Z,157.27
2022-12-24T05:26:43.874Z,157.70
2022-12-24T05:29:13.060Z,158.23
2022-12-24T05:31:44.935Z,158.10
2022-12-24T05:34:13.358Z,157.73
2022-12-24T05:36:41.859Z,158.17
2022-12-24T05:39:15.814Z,158.17
2022-12-24T05:41:44.295Z,158.23
2022-12-24T05:44:12.144Z,157.87
2022-12-24T05:46:40.123Z,157.67
2022-12-24T05:49:09.425Z,157.40
2022-12-24T05:51:37.588Z,157.60
2022-12-24T05:54:06.017Z,157.57
2022-12-24T05:56:34.273Z,157.43
2022-12-24T05:59:02.096Z,157.80
2022-12-24T06:01:30.313Z,157.77
2022-12-24T06:03:58.794Z,158.67
2022-12-24T06:06:29.723Z,157.10
2022-12-24T06:08:58.134Z,158.03
2022-12-24T06:11:28.404Z,157.70
2022-12-24T06:13:57.070Z,157.63
2022-12-24T06:16:26.315Z,157.57
2022-12-24T06:18:54.354Z,157.77
2022-12-24T06:21:22.536Z,157.20
2022-12-24T06:23:51.920Z,157.57
2022-12-24T06:26:21.254Z,157.10
2022-12-24T06:28:50.202Z,157.50
2022-12-24T06:31:20.538Z,157.10
2022-12-24T06:33:49.044Z,157.83
2022-12-24T06:36:19.105Z,158.47
2022-12-24T06:38:48.095Z,157.70
2022-12-24T06:41:18.671Z,157.77
2022-12-24T06:43:47.115Z,157.40
2022-12-24T06:46:15.515Z,157.70
2022-12-24T06:48:44.085Z,157.63
2022-12-24T06:51:12.254Z,158.73
2022-12-24T06:53:40.498Z,158.40
2022-12-24T06:56:09.985Z,157.30
2022-12-24T06:58:39.239Z,157.07
2022-12-24T07:01:08.955Z,157.60
2022-12-24T07:03:37.363Z,157.17
2022-12-24T07:06:05.865Z,157.73
2022-12-24T07:08:36.044Z,157.60
2022-12-24T07:11:03.923Z,157.70
2022-12-24T07:13:34.190Z,157.07
2022-12-24T07:16:05.323Z,157.80
2022-12-24T07:18:33.808Z,157.80
2022-12-24T07:21:04.082Z,157.60
2022-12-24T07:23:32.183Z,157.97
2022-12-24T07:26:02.431Z,157.33
2022-12-24T07:28:30.808Z,157.63
2022-12-24T07:30:59.986Z,156.67
2022-12-24T07:33:29.255Z,156.67
2022-12-24T07:36:01.572Z,158.07
2022-12-24T07:38:30.265Z,157.93
2022-12-24T07:40:58.180Z,157.53
2022-12-24T07:43:26.360Z,158.13
2022-12-24T07:45:56.563Z,157.73
2022-12-24T07:48:24.699Z,157.40
2022-12-24T07:50:53.940Z,157.50
2022-12-24T07:53:21.822Z,156.93
2022-12-24T07:55:49.694Z,157.77
2022-12-24T07:58:17.858Z,156.77
2022-12-24T08:00:45.725Z,157.63
2022-12-24T08:03:18.140Z,157.97
2022-12-24T08:05:46.802Z,158.10
2022-12-24T08:08:15.995Z,157.67
2022-12-24T08:10:45.460Z,157.80
2022-12-24T08:13:13.883Z,158.13
2022-12-24T08:15:41.691Z,157.80
2022-12-24T08:18:09.600Z,158.37
2022-12-24T08:20:39.831Z,158.60
2022-12-24T08:23:08.277Z,157.73
2022-12-24T08:25:37.899Z,159.17
2022-12-24T08:28:06.689Z,158.00
2022-12-24T08:30:34.920Z,158.30
2022-12-24T08:33:02.889Z,158.73
2022-12-24T08:35:30.818Z,159.20
2022-12-24T08:37:58.901Z,158.97
2022-12-24T08:40:26.796Z,158.30
2022-12-24T08:42:56.228Z,159.00
2022-12-24T08:45:24.208Z,157.80
2022-12-24T08:47:52.351Z,159.20
2022-12-24T08:50:20.291Z,158.43
2022-12-24T08:52:48.132Z,158.50
2022-12-24T08:55:17.336Z,158.87
2022-12-24T08:57:45.207Z,158.57
2022-12-24T09:00:15.805Z,158.50
2022-12-24T09:02:43.774Z,159.23
2022-12-24T09:05:11.996Z,159.00
2022-12-24T09:07:39.855Z,159.17
2022-12-24T09:10:08.955Z,159.20
2022-12-24T09:12:36.877Z,158.73
2022-12-24T09:15:07.994Z,158.67
2022-12-24T09:17:37.996Z,158.47
2022-12-24T09:20:07.353Z,158.83
2022-12-24T09:22:36.975Z,159.30
2022-12-24T09:25:05.362Z,159.03
2022-12-24T09:27:33.326Z,158.33
2022-12-24T09:30:01.144Z,159.30
2022-12-24T09:32:28.957Z,159.33
2022-12-24T09:34:58.147Z,159.63
2022-12-24T09:37:26.087Z,159.13
2022-12-24T09:39:53.911Z,159.20
2022-12-24T09:42:34.951Z,159.27
2022-12-24T09:45:08.876Z,159.50
2022-12-24T09:47:42.555Z,159.43
2022-12-24T09:50:31.661Z,159.90
2022-12-24T09:53:02.518Z,160.03
2022-12-24T09:55:34.462Z,158.77
2022-12-24T09:58:05.705Z,159.20
2022-12-24T10:00:36.825Z,159.97
2022-12-24T10:03:15.262Z,160.23
2022-12-24T10:05:52.438Z,159.63
2022-12-24T10:08:27.896Z,159.90
2022-12-24T10:11:01.064Z,160.63
2022-12-24T10:13:47.783Z,160.33
2022-12-24T10:16:23.356Z,160.67
2022-12-24T10:19:01.247Z,160.23
2022-12-24T10:21:42.355Z,160.90
2022-12-24T10:24:17.937Z,160.03
2022-12-24T10:26:47.584Z,160.70
2022-12-24T10:29:18.951Z,160.37
2022-12-24T10:31:54.463Z,160.33
2022-12-24T10:34:24.803Z,160.07
2022-12-24T10:36:53.981Z,160.63
2022-12-24T10:39:25.178Z,159.93
2022-12-24T10:41:55.181Z,160.10
2022-12-24T10:44:27.321Z,160.50
2022-12-24T10:46:55.523Z,159.97
2022-12-24T10:49:31.421Z,160.17
2022-12-24T10:52:05.560Z,159.87
2022-12-24T10:54:39.212Z,159.80
2022-12-24T10:57:26.137Z,160.20
2022-12-24T10:59:57.017Z,160.50
2022-12-24T11:02:28.920Z,160.63
2022-12-24T11:04:59.293Z,160.40
2022-12-24T11:07:30.170Z,160.90
2022-12-24T11:09:59.288Z,160.90
2022-12-24T11:12:32.235Z,161.00
2022-12-24T11:15:05.977Z,160.30
2022-12-24T11:17:34.943Z,160.83
2022-12-24T11:20:04.005Z,161.10
2022-12-24T11:22:34.974Z,160.77
2022-12-24T11:25:06.765Z,161.20
2022-12-24T11:27:44.091Z,160.53
2022-12-24T11:30:26.155Z,161.53
2022-12-24T11:33:21.292Z,161.03
2022-12-24T11:35:53.998Z,160.93
2022-12-24T11:38:25.900Z,160.53
2022-12-24T11:41:00.894Z,160.33
2022-12-24T11:43:44.330Z,161.50
2022-12-24T11:46:15.280Z,160.50
2022-12-24T11:48:43.201Z,160.50
2022-12-24T11:51:25.208Z,161.17
2022-12-24T11:54:01.884Z,160.80
2022-12-24T11:56:36.068Z,160.97
2022-12-24T11:59:13.492Z,160.43
2022-12-24T12:01:49.412Z,160.67
2022-12-24T12:04:21.569Z,160.73
2022-12-24T12:06:52.482Z,161.07
2022-12-24T12:09:25.662Z,160.43
2022-12-24T12:11:57.570Z,160.87
2022-12-24T12:14:31.223Z,160.33
2022-12-24T12:17:07.631Z,160.40
2022-12-24T12:19:43.053Z,159.70
2022-12-24T12:22:22.899Z,161.23
2022-12-24T12:24:54.692Z,162.97
2022-12-24T12:27:32.314Z,166.50
2022-12-24T12:30:03.190Z,167.60
2022-12-24T12:32:42.312Z,166.57
2022-12-24T12:35:22.186Z,168.40
2022-12-24T12:37:55.686Z,169.03
2022-12-24T12:40:38.991Z,170.03
2022-12-24T12:43:17.113Z,170.03
2022-12-24T12:45:54.046Z,170.00
2022-12-24T12:48:42.538Z,170.57
2022-12-24T12:51:16.492Z,171.57
2022-12-24T12:54:09.038Z,170.77
2022-12-24T12:56:39.885Z,170.90
2022-12-24T12:59:16.432Z,171.03
2022-12-24T13:01:50.596Z,170.30
2022-12-24T13:04:54.318Z,171.77
2022-12-24T13:07:52.145Z,170.77
2022-12-24T13:10:41.882Z,171.23
2022-12-24T13:13:40.033Z,170.63
2022-12-24T13:16:37.707Z,170.37
2022-12-24T13:19:19.369Z,171.43
2022-12-24T13:21:48.753Z,170.87
2022-12-24T13:24:19.775Z,171.67
2022-12-24T13:27:02.363Z,171.83
2022-12-24T13:29:41.259Z,171.83
2022-12-24T13:32:48.154Z,171.40
2022-12-24T13:35:38.322Z,171.93
2022-12-24T13:38:44.195Z,171.67
2022-12-24T13:41:58.173Z,171.80
2022-12-24T13:44:32.637Z,172.00
2022-12-24T13:47:30.174Z,172.23
2022-12-24T13:50:22.072Z,172.17
2022-12-24T13:52:53.553Z,172.40
2022-12-24T13:55:22.587Z,172.53
2022-12-24T13:57:59.486Z,172.23
2022-12-24T14:00:40.224Z,172.23
2022-12-24T14:03:23.563Z,173.10
2022-12-24T14:05:54.194Z,172.50
2022-12-24T14:08:44.537Z,172.70
2022-12-24T14:11:14.877Z,172.97
2022-12-24T14:14:27.799Z,173.17
2022-12-24T14:16:58.279Z,173.03
2022-12-24T14:19:37.414Z,173.07
2022-12-24T14:22:20.413Z,172.23
2022-12-24T14:24:54.077Z,169.93
2022-12-24T14:27:29.424Z,168.13
2022-12-24T14:30:05.984Z,167.03
2022-12-24T14:32:39.150Z,165.60
2022-12-24T14:35:15.424Z,165.27
2022-12-24T14:37:46.774Z,165.00
2022-12-24T14:40:18.821Z,165.20
2022-12-24T14:42:56.425Z,164.67
2022-12-24T14:45:34.697Z,163.90
2022-12-24T14:48:13.539Z,163.63
2022-12-24T14:50:52.634Z,163.63
2022-12-24T14:53:29.352Z,163.30
2022-12-24T14:55:58.697Z,162.23
2022-12-24T14:58:52.823Z,161.90
2022-12-24T15:01:37.420Z,162.23
2022-12-24T15:04:26.791Z,162.13
2022-12-24T15:15:21.184Z,160.43
2022-12-24T15:17:49.207Z,160.13
2022-12-24T15:20:19.925Z,159.70
2022-12-24T15:22:51.591Z,159.70
2022-12-24T15:25:21.809Z,160.00
2022-12-24T15:27:49.778Z,159.97
2022-12-24T15:30:21.455Z,159.93
2022-12-24T15:32:51.555Z,160.57
2022-12-24T15:35:34.177Z,160.27
2022-12-24T15:38:03.929Z,159.97
2022-12-24T15:40:33.183Z,159.67
2022-12-24T15:43:01.568Z,159.37
2022-12-24T15:45:33.123Z,159.27
2022-12-24T15:48:07.088Z,159.20
2022-12-24T15:50:37.073Z,159.73
2022-12-24T15:53:21.603Z,158.97
2022-12-24T15:56:04.078Z,159.30
2022-12-24T15:58:34.784Z,159.83
2022-12-24T16:01:19.431Z,159.27
2022-12-24T16:04:00.627Z,158.67
2022-12-24T16:06:29.141Z,158.63
2022-12-24T16:08:59.689Z,159.60
2022-12-24T16:11:35.336Z,160.20
2022-12-24T16:14:12.137Z,158.90
2022-12-24T16:16:43.791Z,158.07
2022-12-24T16:19:19.178Z,158.70
2022-12-24T16:21:52.993Z,158.83
2022-12-24T16:24:23.623Z,158.37
2022-12-24T16:26:52.086Z,157.80
2022-12-24T16:29:20.807Z,158.53
2022-12-24T16:31:52.611Z,158.40
2022-12-24T16:34:24.260Z,158.87
2022-12-24T16:36:52.269Z,158.43
2022-12-24T16:39:25.254Z,158.20
2022-12-24T16:42:08.177Z,158.27
2022-12-24T16:44:36.509Z,158.47
2022-12-24T16:47:07.679Z,159.10
2022-12-24T16:49:38.308Z,158.30
2022-12-24T16:52:06.482Z,158.27
2022-12-24T16:54:34.353Z,157.20
2022-12-24T16:57:03.008Z,157.90
2022-12-24T16:59:32.523Z,157.93
2022-12-24T17:02:00.498Z,157.97
2022-12-24T17:04:32.779Z,157.50
2022-12-24T17:07:01.053Z,158.07
2022-12-24T17:09:28.880Z,158.07
2022-12-24T17:11:56.727Z,158.57
2022-12-24T17:14:24.611Z,158.00
2022-12-24T17:16:52.412Z,156.73
2022-12-24T17:19:20.224Z,157.40
2022-12-24T17:21:50.119Z,157.23
2022-12-24T17:24:18.040Z,157.87
2022-12-24T17:26:45.996Z,156.97
2022-12-24T17:29:15.228Z,157.13
2022-12-24T17:31:43.320Z,156.67
2022-12-24T17:34:11.427Z,156.83
2022-12-24T17:36:40.092Z,157.07
2022-12-24T17:39:09.825Z,156.33
2022-12-24T17:41:37.650Z,156.63
2022-12-24T17:44:08.736Z,156.63
2022-12-24T17:46:36.612Z,157.33
2022-12-24T17:49:04.523Z,157.07
2022-12-24T17:51:33.368Z,157.13
2022-12-24T17:54:01.670Z,156.33
2022-12-24T17:56:31.488Z,156.50
2022-12-24T17:58:59.960Z,157.57
2022-12-24T18:01:30.596Z,156.07
2022-12-24T18:04:00.569Z,157.13
2022-12-24T18:06:28.924Z,157.20
2022-12-24T18:08:57.132Z,156.30
2022-12-24T18:11:27.719Z,155.60
2022-12-24T18:13:58.332Z,156.07
2022-12-24T18:16:29.015Z,156.60
2022-12-24T18:18:57.980Z,156.03
2022-12-24T18:21:28.331Z,156.63
2022-12-24T18:23:56.845Z,156.43
2022-12-24T18:26:25.682Z,156.30
2022-12-24T18:28:56.907Z,156.00
2022-12-24T18:31:26.684Z,156.17
2022-12-24T18:33:56.471Z,156.10
2022-12-24T18:36:24.760Z,156.33
2022-12-24T18:38:52.896Z,156.27
2022-12-24T18:41:22.932Z,155.70
2022-12-24T18:43:50.923Z,156.07
2022-12-24T18:46:22.242Z,156.47
2022-12-24T18:48:50.821Z,155.30
2022-12-24T18:51:21.931Z,156.77
2022-12-24T18:53:50.519Z,155.93
2022-12-24T18:56:20.630Z,155.50
2022-12-24T18:58:48.788Z,155.83
2022-12-24T19:01:18.745Z,156.13
2022-12-24T19:03:52.009Z,155.70
2022-12-24T19:06:21.014Z,155.83
2022-12-24T19:08:58.276Z,155.97
2022-12-24T19:11:27.022Z,155.97
2022-12-24T19:13:55.008Z,156.00
2022-12-24T19:16:23.054Z,155.57
2022-12-24T19:18:52.382Z,154.97
2022-12-24T19:21:20.261Z,156.50
2022-12-24T19:23:50.474Z,156.43
2022-12-24T19:26:21.278Z,156.03
2022-12-24T19:28:49.645Z,155.97
2022-12-24T19:31:18.931Z,155.77
2022-12-24T19:33:48.828Z,155.97
2022-12-24T19:36:20.684Z,155.53
2022-12-24T19:38:49.053Z,155.90
2022-12-24T19:41:19.185Z,156.00
2022-12-24T19:43:48.859Z,155.87
2022-12-24T19:46:19.221Z,155.07
2022-12-24T19:48:49.670Z,155.30
2022-12-24T19:51:19.389Z,154.93
2022-12-24T19:53:47.571Z,155.57
2022-12-24T19:56:16.593Z,155.23
2022-12-24T19:58:44.646Z,155.63
2022-12-24T20:01:15.835Z,154.83
2022-12-24T20:03:44.352Z,154.70
2022-12-24T20:06:12.436Z,154.70
2022-12-24T20:08:41.717Z,154.60
2022-12-24T20:11:11.510Z,154.83
2022-12-24T20:13:40.719Z,154.57
2022-12-24T20:16:10.687Z,154.57
2022-12-24T20:18:38.644Z,154.53
2022-12-24T20:21:08.746Z,154.33
2022-12-24T20:23:38.034Z,153.97
2022-12-24T20:26:08.728Z,154.57
2022-12-24T20:28:37.577Z,153.63
2022-12-24T20:31:11.935Z,154.27
2022-12-24T20:33:39.972Z,154.27
2022-12-24T20:36:08.590Z,154.53
2022-12-24T20:38:37.414Z,154.07
2022-12-24T20:41:09.568Z,154.03
2022-12-24T20:43:44.935Z,154.17
2022-12-24T20:46:16.111Z,153.83
2022-12-24T20:48:44.033Z,154.13
2022-12-24T20:51:22.714Z,153.77
2022-12-24T20:53:51.968Z,153.83
2022-12-24T20:56:21.246Z,154.23
2022-12-24T20:58:49.401Z,154.37
2022-12-24T21:01:19.223Z,154.23
2022-12-24T21:03:47.231Z,153.57
2022-12-24T21:06:17.594Z,153.83
2022-12-24T21:08:45.979Z,154.40
2022-12-24T21:11:31.573Z,154.53
2022-12-24T21:14:01.884Z,154.70
2022-12-24T21:16:31.279Z,154.90
2022-12-24T21:18:59.369Z,154.10
2022-12-24T21:21:27.310Z,154.53
2022-12-24T21:23:55.390Z,154.07
2022-12-24T21:26:23.560Z,154.73
2022-12-24T21:28:51.388Z,154.03
2022-12-24T21:31:20.915Z,154.37
2022-12-24T21:33:48.849Z,154.10
2022-12-24T21:36:18.019Z,153.87
2022-12-24T21:38:45.971Z,153.77
2022-12-24T21:41:17.080Z,153.27
2022-12-24T21:43:46.017Z,154.37
2022-12-24T21:46:15.520Z,153.80
2022-12-24T21:49:02.487Z,154.00
2022-12-24T21:51:30.634Z,154.30
2022-12-24T21:54:15.997Z,154.07
2022-12-24T21:57:01.562Z,153.70
2022-12-24T21:59:30.206Z,153.00
2022-12-24T22:01:58.262Z,153.47
2022-12-24T22:04:28.191Z,153.50
2022-12-24T22:07:13.383Z,153.30
2022-12-24T22:09:59.309Z,153.67
2022-12-24T22:12:31.974Z,153.73
2022-12-24T22:14:59.859Z,153.37
2022-12-24T22:17:28.845Z,154.53
2022-12-24T22:19:58.058Z,154.17
2022-12-24T22:22:26.038Z,154.37
2022-12-24T22:24:53.864Z,154.17
2022-12-24T22:27:21.705Z,154.10
2022-12-24T22:29:49.509Z,154.23
2022-12-24T22:32:17.419Z,153.23
2022-12-24T22:34:46.388Z,153.83
2022-12-24T22:37:15.865Z,154.23
2022-12-24T22:39:44.422Z,153.87
2022-12-24T22:42:12.305Z,154.23
2022-12-24T22:44:40.140Z,153.87
2022-12-24T22:47:08.056Z,154.17
2022-12-24T22:49:37.539Z,154.20
2022-12-24T22:52:05.569Z,154.33
2022-12-24T22:54:35.182Z,154.27
2022-12-24T22:57:03.024Z,154.80
2022-12-24T22:59:30.889Z,154.23
2022-12-24T23:01:58.917Z,154.33
2022-12-24T23:04:27.011Z,153.67
2022-12-24T23:06:54.911Z,154.00
2022-12-24T23:09:22.761Z,154.40
2022-12-24T23:11:51.953Z,153.97
2022-12-24T23:14:39.127Z,154.10
2022-12-24T23:17:07.643Z,153.80
2022-12-24T23:19:35.760Z,153.37
2022-12-24T23:22:05.728Z,153.83
2022-12-24T23:24:34.797Z,154.53
2022-12-24T23:27:04.040Z,154.40
2022-12-24T23:29:32.905Z,155.40
2022-12-24T23:32:00.934Z,155.97
2022-12-24T23:34:28.746Z,157.07
2022-12-24T23:36:56.579Z,156.23
2022-12-24T23:39:24.485Z,156.83
2022-12-24T23:41:52.441Z,156.60
2022-12-24T23:44:26.712Z,157.27
2022-12-24T23:46:58.109Z,156.93
2022-12-24T23:49:26.006Z,156.73
2022-12-24T23:51:53.813Z,157.23
2022-12-24T23:54:21.658Z,157.50
2022-12-24T23:56:49.522Z,156.97
2022-12-24T23:59:17.344Z,157.27
